Terminal Aerodrome Forecast
Issued by NWS

Home | Current Version | Previous Version | Text Only | Print | Product List | Glossary On
Versions: 1 2 3 4 5 6 7 8 9 10 11 12 13
000
FTUS45 KVEF 050533
TAFDAG
TAF
KDAG 050533Z 0506/0606 27017KT P6SM SKC
     FM050800 26012KT P6SM SKC
     FM051900 29012G20KT P6SM SKC
     FM060500 26011KT P6SM SKC=

USA.gov is the U.S. government's official web portal to all federal, state and local government web resources and services.